Time;durP1;ratioP1;P1;durP2;ratioP2;P2;SDS_P1;SDS_P2;PMS_P1;PMS_P2;Temp;Humidity;BMP_temperature;BMP_pressure;BME280_temperature;BME280_humidity;BME280_pressure;Samples;Min_cycle;Max_cycle;Signal;HPM_P1;HPM_P2
2022/11/30 00:00:52;;;;;;;40.13;24.33;;;;;;;6.55;91.68;99228.84;5036450;28;21254;-83
2022/11/30 00:03:18;;;;;;;38.25;23.08;;;;;;;6.38;91.61;99218.94;5022827;28;20022;-83
2022/11/30 00:05:44;;;;;;;36.92;22.13;;;;;;;6.42;91.50;99230.78;5023415;28;20041;-83
2022/11/30 00:08:09;;;;;;;40.88;23.38;;;;;;;6.38;91.50;99208.34;5020111;28;20025;-83
2022/11/30 00:10:37;;;;;;;37.33;22.13;;;;;;;6.57;91.45;99240.06;5001636;28;20414;-83
2022/11/30 00:13:03;;;;;;;39.08;22.67;;;;;;;6.40;91.13;99217.72;5039528;28;20029;-83
2022/11/30 00:15:28;;;;;;;37.25;22.33;;;;;;;6.44;91.51;99237.50;5022331;28;20029;-83
2022/11/30 00:17:56;;;;;;;38.85;23.33;;;;;;;6.41;91.56;99237.91;5019792;28;20064;-83
2022/11/30 00:20:22;;;;;;;36.55;22.50;;;;;;;6.42;91.28;99230.78;5015999;28;20458;-83
2022/11/30 00:22:47;;;;;;;40.92;23.48;;;;;;;6.48;91.13;99230.75;5015970;28;20121;-83
2022/11/30 00:25:13;;;;;;;39.88;22.27;;;;;;;6.40;91.36;99224.88;5018591;28;20030;-82
2022/11/30 00:27:38;;;;;;;35.30;21.48;;;;;;;6.42;92.41;99233.44;5024738;28;20029;-83
2022/11/30 00:30:05;;;;;;;36.42;22.35;;;;;;;6.35;91.83;99230.00;5002477;28;20069;-83
2022/11/30 00:32:30;;;;;;;34.60;20.63;;;;;;;6.47;91.50;99255.63;5003784;28;20040;-83
2022/11/30 00:34:56;;;;;;;30.20;20.58;;;;;;;6.42;91.68;99234.22;5019316;28;20033;-83
2022/11/30 00:37:22;;;;;;;36.15;20.02;;;;;;;6.46;91.40;99237.28;5018381;28;20041;-83
2022/11/30 00:39:47;;;;;;;31.60;19.63;;;;;;;6.44;91.74;99218.13;5001911;28;20059;-83
2022/11/30 00:42:13;;;;;;;35.45;19.92;;;;;;;6.57;91.52;99239.25;5000085;28;20668;-84
2022/11/30 00:44:38;;;;;;;29.33;19.58;;;;;;;6.52;90.72;99225.81;5002428;28;20797;-83
2022/11/30 00:47:03;;;;;;;34.45;20.98;;;;;;;6.50;91.48;99226.03;4984787;28;20490;-83
2022/11/30 00:49:29;;;;;;;37.20;23.02;;;;;;;6.45;91.06;99223.19;5014529;28;20068;-84
2022/11/30 00:51:54;;;;;;;34.22;21.42;;;;;;;6.38;92.16;99240.16;5004888;28;20037;-83
2022/11/30 00:54:20;;;;;;;33.13;20.05;;;;;;;6.44;91.80;99218.94;5023754;28;20116;-83
2022/11/30 00:56:45;;;;;;;30.00;19.83;;;;;;;6.48;91.10;99220.13;5024068;28;20080;-83
2022/11/30 00:59:11;;;;;;;33.22;20.33;;;;;;;6.53;91.57;99230.88;5019106;28;20042;-83
2022/11/30 01:01:36;;;;;;;35.33;23.05;;;;;;;6.48;90.95;99216.66;5024096;28;20087;-83
2022/11/30 01:04:03;;;;;;;29.85;20.23;;;;;;;6.54;90.71;99229.88;5025411;28;20513;-83
2022/11/30 01:06:28;;;;;;;31.27;19.40;;;;;;;6.35;91.81;99209.59;5027600;28;20044;-83
2022/11/30 01:08:54;;;;;;;33.35;22.15;;;;;;;6.55;91.09;99230.69;5009745;28;20030;-83
2022/11/30 01:11:22;;;;;;;27.77;19.45;;;;;;;6.47;91.72;99233.56;5025186;28;20120;-83
2022/11/30 01:13:47;;;;;;;30.67;19.25;;;;;;;6.30;91.50;99219.19;5020101;28;20076;-83
2022/11/30 01:16:16;;;;;;;32.53;20.95;;;;;;;6.48;91.54;99240.53;5005712;28;20034;-83
2022/11/30 01:18:43;;;;;;;33.65;20.95;;;;;;;6.39;91.70;99221.41;5026353;28;20489;-83
2022/11/30 01:21:12;;;;;;;37.15;21.88;;;;;;;6.30;91.84;99219.19;5016093;28;20040;-83
2022/11/30 01:23:38;;;;;;;30.15;20.52;;;;;;;6.37;91.84;99230.59;5010864;28;20118;-83
2022/11/30 01:26:03;;;;;;;31.73;21.10;;;;;;;6.21;92.89;99229.22;5026392;28;20128;-83
2022/11/30 01:28:28;;;;;;;33.33;21.10;;;;;;;6.21;92.69;99225.75;5027154;28;20057;-83
2022/11/30 01:30:59;;;;;;;34.72;21.45;;;;;;;6.13;92.57;99218.88;5004741;28;20371;-82
2022/11/30 01:33:24;;;;;;;35.90;21.48;;;;;;;6.38;91.58;99235.66;5027346;28;20100;-83
2022/11/30 01:36:09;;;;;;;33.35;20.55;;;;;;;6.42;91.84;99230.78;5010222;28;20548;-83
2022/11/30 01:38:38;;;;;;;37.33;21.70;;;;;;;6.42;91.14;99230.78;5029247;28;20035;-83
2022/11/30 01:41:04;;;;;;;41.72;24.17;;;;;;;6.53;91.34;99246.00;5022838;28;20631;-82
2022/11/30 01:43:42;;;;;;;37.78;22.40;;;;;;;6.46;92.15;99238.09;5023831;28;20029;-82
2022/11/30 01:46:35;;;;;;;30.80;20.35;;;;;;;6.50;91.01;99241.94;5025882;28;20025;-83
2022/11/30 01:49:09;;;;;;;36.92;21.63;;;;;;;6.52;91.50;99239.88;5019126;28;20049;-83
2022/11/30 01:51:46;;;;;;;39.35;23.50;;;;;;;6.40;91.80;99232.81;5024975;28;20052;-83
2022/11/30 01:54:15;;;;;;;38.90;22.60;;;;;;;6.39;92.03;99221.41;5006614;28;20464;-83
2022/11/30 01:56:47;;;;;;;36.45;22.35;;;;;;;6.31;91.89;99223.50;5004574;28;20440;-83
2022/11/30 01:59:13;;;;;;;33.03;23.08;;;;;;;6.33;92.49;99230.22;5027559;28;20080;-83
2022/11/30 02:01:39;;;;;;;37.20;22.08;;;;;;;6.50;92.24;99235.81;5023232;28;20120;-83
2022/11/30 02:04:12;;;;;;;35.80;21.23;;;;;;;6.45;91.35;99217.06;5022177;28;20450;-83
2022/11/30 02:06:37;;;;;;;34.55;22.50;;;;;;;6.57;90.64;99233.94;5028651;28;20033;-83
2022/11/30 02:09:03;;;;;;;35.47;21.13;;;;;;;6.44;91.48;99226.06;4999110;28;20049;-83
2022/11/30 02:11:28;;;;;;;36.78;22.85;;;;;;;6.43;91.61;99227.06;5024469;28;20143;-82
2022/11/30 02:14:15;;;;;;;33.42;22.10;;;;;;;6.51;92.38;99240.91;5008007;28;20030;-83
2022/11/30 02:17:05;;;;;;;31.17;21.15;;;;;;;6.45;91.31;99219.72;5022102;28;20029;-83
2022/11/30 02:19:45;;;;;;;32.50;20.17;;;;;;;6.53;92.23;99232.75;5021959;28;20409;-82
2022/11/30 02:22:33;;;;;;;38.85;22.92;;;;;;;6.55;91.66;99234.13;5023412;28;20033;-83
2022/11/30 02:25:16;;;;;;;32.75;20.45;;;;;;;6.25;91.84;99197.81;5028362;28;20104;-83
2022/11/30 02:28:12;;;;;;;34.88;19.95;;;;;;;6.49;91.57;99227.03;5024369;28;20104;-83
2022/11/30 02:30:42;;;;;;;36.85;21.17;;;;;;;6.14;92.63;99214.41;5022152;28;20045;-83
2022/11/30 02:33:13;;;;;;;36.60;20.98;;;;;;;6.32;92.61;99219.78;5009657;28;20025;-83
2022/11/30 02:35:43;;;;;;;32.28;20.30;;;;;;;6.21;91.92;99212.50;5016123;28;20080;-83
2022/11/30 02:38:09;;;;;;;33.67;20.63;;;;;;;6.32;93.10;99239.16;5017254;28;20041;-83
2022/11/30 02:40:35;;;;;;;34.40;20.08;;;;;;;6.39;92.22;99226.69;5015196;28;20041;-84
2022/11/30 02:43:03;;;;;;;33.92;20.90;;;;;;;6.52;91.23;99233.75;5004436;28;20042;-83
2022/11/30 02:45:35;;;;;;;34.22;20.98;;;;;;;6.43;92.62;99235.03;5017288;28;20193;-83
2022/11/30 02:48:06;;;;;;;30.98;20.58;;;;;;;6.26;92.19;99220.66;5017972;28;20489;-83
2022/11/30 02:50:43;;;;;;;34.25;20.40;;;;;;;6.45;92.45;99236.44;5019509;28;20078;-83
2022/11/30 02:53:09;;;;;;;32.90;19.88;;;;;;;6.46;91.89;99229.31;5016207;28;20480;-83
2022/11/30 02:55:34;;;;;;;33.78;21.67;;;;;;;6.43;90.98;99224.44;4998243;28;20034;-83
2022/11/30 02:58:00;;;;;;;26.88;18.40;;;;;;;6.50;91.88;99235.81;5002991;28;20037;-83
2022/11/30 03:00:25;;;;;;;31.17;19.02;;;;;;;6.40;91.28;99222.22;5019467;28;20091;-83
2022/11/30 03:02:54;;;;;;;32.80;20.05;;;;;;;6.42;91.23;99236.88;5015407;28;20037;-83
2022/11/30 03:05:19;;;;;;;29.30;19.48;;;;;;;6.45;91.96;99235.63;5015028;28;20037;-83
2022/11/30 03:07:45;;;;;;;26.77;19.00;;;;;;;6.39;91.70;99223.22;5016896;28;20094;-83
2022/11/30 03:10:10;;;;;;;34.55;20.60;;;;;;;6.26;92.34;99221.47;4986923;28;20033;-83
2022/11/30 03:12:35;;;;;;;31.80;20.20;;;;;;;6.42;91.92;99228.91;5023592;28;20461;-82
2022/11/30 03:15:01;;;;;;;33.75;21.73;;;;;;;6.46;91.51;99238.09;5017721;28;20038;-83
2022/11/30 03:17:26;;;;;;;30.70;20.00;;;;;;;6.50;91.75;99239.28;5005004;28;20041;-83
2022/11/30 03:19:52;;;;;;;32.33;20.50;;;;;;;6.43;91.34;99232.38;5020725;28;20053;-82
2022/11/30 03:22:17;;;;;;;35.90;21.63;;;;;;;6.46;91.26;99229.31;5000191;28;20037;-83
2022/11/30 03:24:42;;;;;;;35.10;21.40;;;;;;;6.45;90.87;99222.38;5007220;28;20034;-83
2022/11/30 03:27:08;;;;;;;31.88;20.52;;;;;;;6.35;91.56;99235.28;5005387;28;20381;-83
2022/11/30 03:29:33;;;;;;;36.30;22.15;;;;;;;6.51;91.74;99245.41;5000773;28;20034;-83
2022/11/30 03:31:59;;;;;;;31.58;20.05;;;;;;;6.50;91.38;99241.94;5020725;28;20112;-83
2022/11/30 03:34:26;;;;;;;33.15;20.92;;;;;;;6.50;91.79;99243.78;5021572;28;20041;-83
2022/11/30 03:36:52;;;;;;;32.20;19.70;;;;;;;6.53;91.98;99243.34;5019187;28;20561;-83
2022/11/30 03:39:17;;;;;;;32.47;21.10;;;;;;;6.47;91.91;99249.50;5024913;28;20033;-83
2022/11/30 03:41:43;;;;;;;27.45;18.63;;;;;;;6.45;92.42;99249.72;5023676;28;20112;-83
2022/11/30 03:44:09;;;;;;;28.50;19.80;;;;;;;6.41;91.56;99243.22;5020768;28;20044;-83
2022/11/30 03:46:34;;;;;;;34.38;20.52;;;;;;;6.31;91.72;99237.53;4985602;28;20037;-83
2022/11/30 03:49:00;;;;;;;36.88;21.02;;;;;;;6.41;92.59;99247.69;5020073;28;20083;-83
2022/11/30 03:51:25;;;;;;;31.48;19.27;;;;;;;6.40;92.14;99238.91;4986875;28;20366;-83
2022/11/30 03:53:50;;;;;;;31.38;19.58;;;;;;;6.46;91.90;99245.22;5004690;28;20329;-83
2022/11/30 03:56:16;;;;;;;30.00;19.10;;;;;;;6.53;91.05;99260.06;5015688;28;20061;-83
2022/11/30 03:58:41;;;;;;;34.45;20.08;;;;;;;6.44;91.71;99250.75;5021904;28;20069;-83
2022/11/30 04:01:08;;;;;;;32.63;19.65;;;;;;;6.47;92.64;99262.75;5021069;28;20088;-83
2022/11/30 04:03:34;;;;;;;30.60;20.05;;;;;;;6.55;91.44;99259.88;5025297;28;20740;-83
2022/11/30 04:06:01;;;;;;;34.20;20.67;;;;;;;6.31;91.76;99236.75;5018477;28;20405;-83
2022/11/30 04:08:27;;;;;;;37.90;21.95;;;;;;;6.17;92.58;99237.81;5020985;28;20107;-83
2022/11/30 04:10:54;;;;;;;36.58;20.70;;;;;;;6.22;92.96;99241.47;5020175;28;20034;-83
2022/11/30 04:13:20;;;;;;;34.63;20.83;;;;;;;6.22;93.02;99246.78;5005183;28;20029;-83
2022/11/30 04:15:47;;;;;;;36.15;21.02;;;;;;;6.29;93.01;99242.22;5012156;28;20120;-83
2022/11/30 04:18:14;;;;;;;35.03;20.75;;;;;;;6.27;92.23;99256.75;5021589;28;20140;-83
2022/11/30 04:20:40;;;;;;;36.70;19.65;;;;;;;6.43;92.66;99264.19;5021120;28;20116;-83
2022/11/30 04:23:05;;;;;;;37.20;21.83;;;;;;;6.37;92.48;99255.25;5026262;28;20076;-83
2022/11/30 04:25:31;;;;;;;33.17;19.85;;;;;;;6.39;91.96;99258.53;5025393;28;20061;-83
2022/11/30 04:27:56;;;;;;;36.03;20.63;;;;;;;6.33;92.82;99254.06;5008846;28;20029;-83
2022/11/30 04:30:21;;;;;;;36.42;21.98;;;;;;;6.31;93.18;99265.91;5006403;28;20580;-82
2022/11/30 04:32:47;;;;;;;33.90;20.58;;;;;;;6.42;92.43;99262.59;5012763;28;20497;-83
2022/11/30 04:35:12;;;;;;;30.90;20.30;;;;;;;6.35;92.83;99262.63;5032207;28;20485;-83
2022/11/30 04:37:37;;;;;;;32.85;20.45;;;;;;;6.40;91.63;99252.16;5026826;28;20128;-83
2022/11/30 04:40:04;;;;;;;34.08;21.42;;;;;;;6.58;91.90;99276.16;5027618;28;20500;-83
2022/11/30 04:42:29;;;;;;;31.73;19.70;;;;;;;6.54;91.27;99268.84;5026636;28;20025;-83
2022/11/30 04:44:55;;;;;;;30.95;20.60;;;;;;;6.59;91.49;99274.31;5029931;28;20033;-83
2022/11/30 04:47:20;;;;;;;30.15;19.05;;;;;;;6.57;91.70;99271.91;5012784;28;20140;-83
2022/11/30 04:49:45;;;;;;;32.97;20.08;;;;;;;6.46;90.67;99247.88;5028256;28;20029;-83
2022/11/30 04:52:11;;;;;;;30.05;19.23;;;;;;;6.59;91.59;99266.38;5009721;28;20511;-83
2022/11/30 04:54:36;;;;;;;31.50;19.05;;;;;;;6.44;90.61;99245.44;5028762;28;20033;-83
2022/11/30 04:57:03;;;;;;;32.58;18.58;;;;;;;6.44;92.21;99257.88;5007558;28;20057;-83
2022/11/30 04:59:28;;;;;;;30.23;18.88;;;;;;;6.29;91.98;99262.66;5027145;28;20029;-82
2022/11/30 05:01:54;;;;;;;30.85;19.45;;;;;;;6.41;92.62;99271.56;5024661;28;20049;-83
2022/11/30 05:04:19;;;;;;;30.10;18.95;;;;;;;6.43;92.58;99270.31;5024372;28;20486;-83
2022/11/30 05:06:44;;;;;;;28.15;18.42;;;;;;;6.32;92.32;99263.03;5026216;28;20124;-83
2022/11/30 05:09:10;;;;;;;30.48;18.77;;;;;;;6.18;92.22;99248.19;4992655;28;20204;-83
2022/11/30 05:11:35;;;;;;;31.98;19.33;;;;;;;6.50;91.88;99278.25;4994107;28;20054;-83
2022/11/30 05:14:01;;;;;;;33.30;20.08;;;;;;;6.42;92.01;99260.72;5027189;28;20032;-83
2022/11/30 05:16:26;;;;;;;35.95;20.08;;;;;;;6.40;91.47;99257.47;4990763;28;20034;-83
2022/11/30 05:18:51;;;;;;;29.40;19.23;;;;;;;6.51;92.16;99283.31;5023313;28;20036;-83
2022/11/30 05:21:17;;;;;;;31.40;19.33;;;;;;;6.50;91.46;99281.72;5024442;28;20111;-82
2022/11/30 05:23:42;;;;;;;28.88;18.67;;;;;;;6.59;90.67;99280.44;5024954;28;20091;-82
2022/11/30 05:26:08;;;;;;;29.92;17.75;;;;;;;6.46;91.54;99264.59;5023721;28;20527;-82
2022/11/30 05:28:33;;;;;;;30.35;17.27;;;;;;;6.41;91.48;99264.41;5001102;28;20033;-83
2022/11/30 05:31:05;;;;;;;29.70;18.02;;;;;;;6.42;92.32;99284.59;5019246;28;20037;-82
2022/11/30 05:33:31;;;;;;;28.90;17.52;;;;;;;6.52;91.85;99294.75;5023054;28;20029;-82
2022/11/30 05:35:57;;;;;;;27.30;18.48;;;;;;;6.46;91.54;99290.31;5024221;28;20040;-83
2022/11/30 05:38:22;;;;;;;25.80;16.40;;;;;;;6.45;91.36;99286.81;5019158;28;20038;-83
2022/11/30 05:40:47;;;;;;;30.02;16.95;;;;;;;6.36;92.01;99281.97;5017220;28;20037;-82
2022/11/30 05:43:13;;;;;;;25.88;16.15;;;;;;;6.52;92.07;99294.75;4994337;28;20061;-82
2022/11/30 05:45:38;;;;;;;30.10;16.40;;;;;;;6.37;92.30;99288.91;5031320;28;20401;-82
2022/11/30 05:48:04;;;;;;;21.70;15.27;;;;;;;6.28;92.55;99284.88;5029928;28;20029;-83
2022/11/30 05:50:30;;;;;;;25.27;16.58;;;;;;;6.36;92.41;99284.63;5005316;28;20043;-82
2022/11/30 05:52:55;;;;;;;24.00;16.02;;;;;;;6.45;93.08;99299.25;5023822;28;20045;-82
2022/11/30 05:55:24;;;;;;;26.08;15.13;;;;;;;6.37;91.20;99286.25;5029432;28;20029;-83
2022/11/30 05:57:49;;;;;;;24.70;15.10;;;;;;;6.45;92.73;99304.56;5012899;28;20037;-83
2022/11/30 06:00:15;;;;;;;22.60;15.13;;;;;;;6.36;92.30;99290.75;5011716;28;20103;-83
2022/11/30 06:02:41;;;;;;;27.77;16.30;;;;;;;6.02;94.04;99297.19;5027205;28;20030;-83
2022/11/30 06:05:07;;;;;;;26.80;16.92;;;;;;;6.07;94.09;99313.25;5029842;28;20484;-83
2022/11/30 06:07:32;;;;;;;27.25;17.42;;;;;;;6.07;94.83;99313.25;5011182;28;20120;-83
2022/11/30 06:09:58;;;;;;;26.13;16.13;;;;;;;6.25;92.76;99294.03;5027989;28;20022;-82
2022/11/30 06:12:23;;;;;;;28.67;16.60;;;;;;;6.46;91.86;99314.97;5023154;28;20037;-82
2022/11/30 06:14:49;;;;;;;25.02;17.42;;;;;;;6.44;92.06;99297.66;5029914;28;20477;-83
2022/11/30 06:17:15;;;;;;;25.08;16.70;;;;;;;6.41;92.13;99313.97;4990066;28;20076;-82
2022/11/30 06:19:41;;;;;;;24.67;15.30;;;;;;;6.42;91.84;99300.50;5009272;28;20084;-83
2022/11/30 06:22:06;;;;;;;23.02;14.25;;;;;;;6.40;92.31;99301.75;5020136;28;20029;-83
2022/11/30 06:24:31;;;;;;;22.90;15.43;;;;;;;6.37;91.72;99302.16;5028752;28;20127;-83
2022/11/30 06:26:57;;;;;;;27.00;15.20;;;;;;;6.41;92.09;99308.66;5025654;28;20457;-83
2022/11/30 06:29:22;;;;;;;23.17;14.20;;;;;;;6.57;91.51;99316.16;5027638;28;20072;-83
2022/11/30 06:31:47;;;;;;;23.30;14.85;;;;;;;6.34;92.39;99303.41;5027395;28;20029;-83
2022/11/30 06:34:13;;;;;;;20.25;14.10;;;;;;;6.52;92.14;99311.47;5028963;28;20032;-83
2022/11/30 06:36:38;;;;;;;19.15;13.48;;;;;;;6.43;91.94;99301.31;4994934;28;20037;-83
2022/11/30 06:39:04;;;;;;;19.45;14.40;;;;;;;6.50;91.33;99318.00;5021783;28;20025;-83
2022/11/30 06:41:29;;;;;;;33.63;20.67;;;;;;;6.45;91.21;99326.59;5023454;28;20176;-83
2022/11/30 06:43:55;;;;;;;27.65;15.50;;;;;;;6.51;91.73;99327.63;5022297;28;20025;-82
2022/11/30 06:46:21;;;;;;;21.48;14.45;;;;;;;6.57;91.58;99322.28;5023160;28;20036;-83
2022/11/30 06:48:52;;;;;;;19.27;13.57;;;;;;;6.51;92.04;99332.91;5020661;28;20033;-83
2022/11/30 06:51:18;;;;;;;23.33;14.80;;;;;;;6.47;92.08;99305.16;5028661;28;20112;-83
2022/11/30 06:53:44;;;;;;;21.65;14.52;;;;;;;6.52;91.46;99318.63;5024832;28;20116;-83
2022/11/30 06:56:11;;;;;;;21.40;14.07;;;;;;;6.58;91.39;99325.72;5026004;28;20037;-83
2022/11/30 06:58:40;;;;;;;23.42;13.70;;;;;;;6.62;90.90;99343.66;5024390;28;20033;-83
2022/11/30 07:01:08;;;;;;;20.13;13.43;;;;;;;6.60;91.70;99339.59;5027756;28;20397;-83
2022/11/30 07:03:33;;;;;;;20.63;13.68;;;;;;;6.59;91.66;99344.09;5022660;28;20037;-83
2022/11/30 07:05:59;;;;;;;21.15;13.38;;;;;;;6.59;91.70;99340.63;5012949;28;20407;-83
2022/11/30 07:08:24;;;;;;;19.65;12.95;;;;;;;6.59;91.45;99346.75;4996000;28;20375;-82
2022/11/30 07:10:49;;;;;;;22.13;14.75;;;;;;;6.57;91.48;99345.31;5025591;28;20083;-83
2022/11/30 07:13:17;;;;;;;20.38;13.52;;;;;;;6.46;92.59;99343.34;5026713;28;20029;-83
2022/11/30 07:15:44;;;;;;;24.33;14.00;;;;;;;6.52;91.62;99345.94;5026652;28;20040;-83
2022/11/30 07:18:10;;;;;;;23.95;14.02;;;;;;;6.52;91.47;99343.31;5026759;28;20087;-84
2022/11/30 07:20:36;;;;;;;23.98;14.98;;;;;;;6.59;91.68;99354.72;5026879;28;20053;-83
2022/11/30 07:26:08;;;;;;;23.70;16.90;;;;;;;6.49;92.26;99364.09;5026898;28;20060;-83
2022/11/30 07:28:35;;;;;;;20.88;14.52;;;;;;;6.52;91.86;99345.94;5028650;28;20060;-83
2022/11/30 07:31:25;;;;;;;23.95;15.07;;;;;;;6.58;91.52;99355.72;5023382;28;20033;-83
2022/11/30 07:33:51;;;;;;;22.75;14.98;;;;;;;6.41;92.50;99343.97;5044750;28;20116;-83
2022/11/30 07:36:18;;;;;;;22.45;15.57;;;;;;;6.55;92.39;99357.97;5024930;28;20163;-83
2022/11/30 07:38:45;;;;;;;23.85;15.75;;;;;;;6.58;92.27;99357.53;5027108;28;20022;-83
2022/11/30 07:41:11;;;;;;;26.58;16.08;;;;;;;6.60;91.23;99366.09;5026807;28;20605;-83
2022/11/30 07:43:36;;;;;;;24.95;16.02;;;;;;;6.31;92.80;99350.72;5028535;28;20458;-83
2022/11/30 07:46:03;;;;;;;28.75;15.75;;;;;;;6.58;91.64;99362.84;5024957;28;20168;-83
2022/11/30 07:48:29;;;;;;;25.90;16.15;;;;;;;6.61;91.73;99365.09;5026926;28;20065;-83
2022/11/30 07:51:04;;;;;;;19.75;14.30;;;;;;;6.47;91.85;99374.94;5026908;28;20021;-83
2022/11/30 07:53:30;;;;;;;24.65;14.40;;;;;;;6.45;92.24;99376.16;5021292;28;20033;-83
2022/11/30 07:56:01;;;;;;;25.08;15.00;;;;;;;6.15;94.24;99375.00;5024333;28;20041;-83
2022/11/30 07:58:27;;;;;;;28.88;15.90;;;;;;;5.98;95.63;99393.19;5021310;28;20077;-83
2022/11/30 08:00:52;;;;;;;27.98;17.58;;;;;;;5.76;96.38;99379.31;5025084;28;20409;-83
2022/11/30 08:03:18;;;;;;;29.92;16.98;;;;;;;5.98;96.48;99378.09;5024520;28;20037;-83
2022/11/30 08:05:43;;;;;;;25.92;16.40;;;;;;;6.18;94.06;99374.63;5031390;28;20037;-83
2022/11/30 08:08:09;;;;;;;24.45;15.18;;;;;;;6.18;95.42;99374.63;5030373;28;20030;-83
2022/11/30 08:10:34;;;;;;;32.60;18.75;;;;;;;6.16;93.90;99356.25;5012495;28;20061;-83
2022/11/30 08:12:59;;;;;;;30.02;17.27;;;;;;;6.15;94.94;99381.13;5029854;28;20021;-83
2022/11/30 08:15:25;;;;;;;31.60;18.63;;;;;;;5.44;98.07;99384.59;5031516;28;20034;-82
2022/11/30 08:17:53;;;;;;;40.17;19.75;;;;;;;5.38;98.63;99367.69;5014895;28;20060;-83
2022/11/30 08:20:19;;;;;;;33.33;17.85;;;;;;;5.62;98.07;99372.38;5022705;28;20037;-83
2022/11/30 08:22:45;;;;;;;34.15;17.70;;;;;;;5.43;97.95;99383.78;5029176;28;20033;-83
2022/11/30 08:25:10;;;;;;;34.65;17.67;;;;;;;5.29;99.57;99387.41;5032787;28;20193;-83
2022/11/30 08:27:36;;;;;;;33.60;19.52;;;;;;;5.31;100.00;99369.50;5013987;28;20773;-83
2022/11/30 08:30:01;;;;;;;28.15;16.63;;;;;;;5.71;98.98;99381.75;5030068;28;20037;-83
2022/11/30 08:32:26;;;;;;;31.25;16.63;;;;;;;5.94;98.52;99384.03;5027545;28;20057;-83
2022/11/30 08:34:52;;;;;;;27.13;15.52;;;;;;;6.09;95.81;99359.94;5032523;28;20492;-83
2022/11/30 08:37:17;;;;;;;28.67;18.08;;;;;;;5.77;97.28;99377.47;5006753;28;20109;-84
2022/11/30 08:39:42;;;;;;;36.05;18.98;;;;;;;5.70;98.55;99379.31;4991964;28;20180;-83
2022/11/30 08:42:08;;;;;;;27.77;15.82;;;;;;;6.00;96.86;99360.19;5009446;28;20030;-83
2022/11/30 08:44:33;;;;;;;26.77;17.77;;;;;;;6.41;94.35;99381.06;5030703;28;20455;-83
2022/11/30 08:46:58;;;;;;;24.73;14.20;;;;;;;6.50;93.67;99374.53;5028944;28;20025;-83
2022/11/30 08:49:24;;;;;;;27.23;13.82;;;;;;;6.54;93.01;99372.25;5011018;28;20065;-83
2022/11/30 08:51:51;;;;;;;29.70;16.08;;;;;;;6.39;93.91;99374.34;5029315;28;20036;-83
2022/11/30 08:54:16;;;;;;;25.13;13.25;;;;;;;6.62;92.44;99382.63;5027741;28;20107;-83
2022/11/30 08:56:42;;;;;;;23.52;14.25;;;;;;;6.26;95.82;99387.63;5025525;28;20454;-83
2022/11/30 08:59:07;;;;;;;28.83;16.45;;;;;;;5.87;97.74;99386.69;5013955;28;20493;-82
2022/11/30 09:01:32;;;;;;;28.58;15.10;;;;;;;6.11;95.32;99365.84;4999298;28;20037;-83
2022/11/30 09:03:58;;;;;;;23.17;14.68;;;;;;;6.24;95.98;99393.16;5029587;28;20158;-83
2022/11/30 09:06:28;;;;;;;24.65;13.82;;;;;;;5.70;97.38;99414.53;5030341;28;20041;-83
2022/11/30 09:08:56;;;;;;;29.52;16.08;;;;;;;5.58;98.83;99407.41;5024000;28;20573;-83
2022/11/30 09:11:23;;;;;;;30.92;16.52;;;;;;;5.51;99.70;99420.63;5009762;28;20040;-83
2022/11/30 09:13:49;;;;;;;26.67;14.88;;;;;;;5.68;99.51;99382.16;5031046;28;20502;-83
2022/11/30 09:16:17;;;;;;;27.13;15.60;;;;;;;6.03;96.83;99403.97;5030282;28;20292;-82
2022/11/30 09:18:43;;;;;;;23.98;13.98;;;;;;;6.19;95.46;99400.06;5012903;28;20029;-83
2022/11/30 09:21:11;;;;;;;23.48;13.75;;;;;;;6.36;94.58;99419.81;5026557;28;20032;-83
2022/11/30 09:23:37;;;;;;;20.48;12.82;;;;;;;6.63;93.49;99418.75;5026117;28;20151;-83
2022/11/30 09:26:06;;;;;;;19.75;12.88;;;;;;;6.37;93.84;99408.22;5008240;28;20036;-83
2022/11/30 09:28:32;;;;;;;21.92;12.30;;;;;;;6.21;95.14;99401.50;5022702;28;20065;-83
2022/11/30 09:31:02;;;;;;;19.65;11.95;;;;;;;6.41;94.76;99425.31;5003092;28;20442;-83
2022/11/30 09:33:28;;;;;;;18.65;11.52;;;;;;;6.51;94.05;99409.81;5028703;28;20027;-83
2022/11/30 09:35:55;;;;;;;14.77;10.65;;;;;;;6.58;93.46;99422.00;5012270;28;20033;-83
2022/11/30 09:38:21;;;;;;;19.98;12.07;;;;;;;6.30;94.11;99412.69;5029243;28;20036;-84
2022/11/30 09:40:53;;;;;;;24.27;14.07;;;;;;;6.17;95.14;99428.63;5026361;28;20025;-83
2022/11/30 09:43:29;;;;;;;24.17;14.73;;;;;;;5.76;98.07;99407.63;5027445;28;20657;-83
2022/11/30 09:46:02;;;;;;;22.55;13.45;;;;;;;6.00;96.73;99402.56;5028767;28;20110;-83
2022/11/30 09:48:55;;;;;;;23.90;14.60;;;;;;;6.36;95.24;99431.25;5017696;28;20195;-83
2022/11/30 09:51:45;;;;;;;21.10;13.20;;;;;;;6.55;94.75;99421.63;5027232;28;20498;-83
2022/11/30 09:54:34;;;;;;;22.80;13.85;;;;;;;6.11;95.46;99411.72;5029185;28;20021;-83
2022/11/30 09:57:02;;;;;;;21.88;13.20;;;;;;;6.25;95.53;99409.84;5020088;28;20025;-83
2022/11/30 09:59:32;;;;;;;26.67;15.48;;;;;;;6.06;95.81;99419.47;5026019;28;20098;-83
2022/11/30 10:02:12;;;;;;;20.20;13.30;;;;;;;6.12;96.83;99416.00;5011517;28;20029;-83
2022/11/30 10:04:38;;;;;;;26.83;15.30;;;;;;;6.08;97.37;99433.31;5025120;28;20044;-83
2022/11/30 10:07:22;;;;;;;22.83;13.55;;;;;;;6.36;96.99;99425.13;5018381;28;20426;-83
2022/11/30 10:09:50;;;;;;;24.23;15.75;;;;;;;6.46;94.99;99430.81;5023733;28;20029;-83
2022/11/30 10:12:29;;;;;;;31.42;17.15;;;;;;;6.03;96.01;99407.44;5030026;28;20036;-83
2022/11/30 10:15:14;;;;;;;21.95;12.50;;;;;;;6.46;94.87;99407.78;5027004;28;20229;-83
2022/11/30 10:17:55;;;;;;;28.60;16.85;;;;;;;6.08;96.19;99425.38;5022150;28;20060;-83
2022/11/30 10:20:36;;;;;;;21.30;13.18;;;;;;;6.51;94.55;99425.72;5023133;28;20076;-83
2022/11/30 10:23:38;;;;;;;25.83;15.77;;;;;;;6.71;92.96;99424.63;5030880;28;20034;-83
2022/11/30 10:26:15;;;;;;;21.15;15.55;;;;;;;6.70;93.04;99399.13;5030729;28;20627;-83
2022/11/30 10:28:57;;;;;;;22.17;13.18;;;;;;;6.79;92.42;99405.81;5021274;28;21660;-83
2022/11/30 10:31:32;;;;;;;36.08;18.17;;;;;;;6.64;92.28;99399.94;5028254;28;20025;-83
2022/11/30 10:34:13;;;;;;;28.65;15.15;;;;;;;6.64;94.01;99425.69;5037889;28;20072;-83
2022/11/30 10:36:42;;;;;;;23.83;13.95;;;;;;;6.25;96.26;99431.06;5044368;28;20163;-83
2022/11/30 10:39:30;;;;;;;24.23;14.85;;;;;;;6.61;94.11;99421.63;5015496;28;20120;-83
2022/11/30 10:42:08;;;;;;;21.52;13.98;;;;;;;6.70;92.54;99408.94;5023993;28;20307;-83
2022/11/30 10:44:38;;;;;;;18.40;12.90;;;;;;;6.75;93.19;99414.41;5027384;28;20057;-83
2022/11/30 10:47:09;;;;;;;20.73;13.43;;;;;;;6.52;92.84;99390.22;5025315;28;20053;-83
2022/11/30 10:49:37;;;;;;;23.40;12.88;;;;;;;6.80;92.11;99414.59;5018483;28;20037;-83
2022/11/30 10:52:06;;;;;;;22.52;11.82;;;;;;;6.85;92.49;99408.66;5022512;28;20037;-83
2022/11/30 10:54:34;;;;;;;21.63;12.25;;;;;;;6.80;92.73;99414.59;5025111;28;20029;-83
2022/11/30 10:57:02;;;;;;;20.15;12.98;;;;;;;6.84;92.20;99415.78;5041726;28;20044;-83
2022/11/30 10:59:42;;;;;;;19.70;13.13;;;;;;;6.82;92.81;99415.19;5024487;28;20116;-83
2022/11/30 11:02:39;;;;;;;20.13;14.60;;;;;;;6.71;93.68;99416.66;5028230;28;20462;-83
2022/11/30 11:05:21;;;;;;;21.83;13.02;;;;;;;6.66;93.34;99413.03;4997337;28;20046;-83
2022/11/30 11:08:00;;;;;;;21.08;12.55;;;;;;;6.70;93.70;99404.44;5021009;28;20165;-82
2022/11/30 11:10:50;;;;;;;27.85;16.30;;;;;;;6.62;94.16;99417.09;5010439;28;20025;-82
2022/11/30 11:13:42;;;;;;;28.02;16.40;;;;;;;6.61;93.86;99410.19;5024451;28;20512;-82
2022/11/30 11:16:12;;;;;;;24.98;15.75;;;;;;;6.59;93.24;99404.28;5015339;28;20035;-83
2022/11/30 11:18:55;;;;;;;24.85;16.10;;;;;;;6.16;95.65;99427.00;5007425;28;21805;-82
2022/11/30 11:21:22;;;;;;;32.50;19.85;;;;;;;6.26;96.22;99414.13;5016062;28;20056;-82
2022/11/30 11:23:56;;;;;;;28.50;17.88;;;;;;;6.47;95.08;99414.69;5013650;28;20034;-82
2022/11/30 11:26:27;;;;;;;31.92;18.05;;;;;;;6.42;94.76;99403.09;5024678;28;20064;-82
2022/11/30 11:28:55;;;;;;;26.73;17.17;;;;;;;6.52;95.65;99406.13;5004775;28;20035;-82
2022/11/30 11:31:30;;;;;;;26.13;16.33;;;;;;;6.69;95.02;99429.31;5002241;28;20061;-82
2022/11/30 11:33:55;;;;;;;34.50;19.38;;;;;;;6.29;97.22;99424.34;5021497;28;20041;-83